Time;durP1;ratioP1;P1;durP2;ratioP2;P2;SDS_P1;SDS_P2;PMS_P1;PMS_P2;Temp;Humidity;BMP_temperature;BMP_pressure;BME280_temperature;BME280_humidity;BME280_pressure;Samples;Min_cycle;Max_cycle;Signal;HPM_P1;HPM_P2
2023/12/14 00:01:50;;;;;;;0.00;0.00;;;7.10;99.90;;;;;;5110669;28;20184;-72
2023/12/14 00:04:16;;;;;;;0.00;0.00;;;7.10;99.90;;;;;;5102264;28;20179;-72
2023/12/14 00:06:41;;;;;;;0.00;0.00;;;7.20;99.90;;;;;;5090294;28;20218;-73
2023/12/14 00:09:08;;;;;;;0.00;0.00;;;7.20;99.90;;;;;;5102781;28;20274;-69
2023/12/14 00:11:38;;;;;;;3.28;2.97;;;7.20;99.90;;;;;;5089787;28;20759;-72
2023/12/14 00:14:03;;;;;;;1.92;1.83;;;7.90;99.90;;;;;;5091088;28;20773;-71
2023/12/14 00:16:29;;;;;;;0.05;0.05;;;8.00;99.90;;;;;;5096564;28;20274;-73
2023/12/14 00:18:54;;;;;;;0.20;0.20;;;8.10;99.90;;;;;;5102578;28;20244;-72
2023/12/14 00:21:20;;;;;;;0.10;0.10;;;8.00;99.90;;;;;;5111132;28;20638;-73
2023/12/14 00:23:45;;;;;;;0.00;0.00;;;7.90;99.90;;;;;;5106426;28;20646;-73
2023/12/14 00:26:11;;;;;;;0.10;0.10;;;7.70;99.90;;;;;;5102245;28;20195;-72
2023/12/14 00:28:36;;;;;;;0.00;0.00;;;7.70;99.90;;;;;;5103094;28;20191;-74
2023/12/14 00:31:03;;;;;;;0.00;0.00;;;7.60;99.90;;;;;;5090663;28;20180;-73
2023/12/14 00:33:28;;;;;;;0.00;0.00;;;7.50;99.90;;;;;;5090518;28;20245;-72
2023/12/14 00:35:54;;;;;;;0.00;0.00;;;7.50;99.90;;;;;;5099753;28;20217;-73
2023/12/14 00:38:19;;;;;;;0.00;0.00;;;7.50;99.90;;;;;;5105640;28;20694;-72
2023/12/14 00:40:45;;;;;;;0.00;0.00;;;7.50;99.90;;;;;;5108751;28;20169;-72
2023/12/14 00:43:10;;;;;;;0.00;0.00;;;7.50;99.90;;;;;;5094355;28;20172;-72
2023/12/14 00:45:36;;;;;;;0.00;0.00;;;7.50;99.90;;;;;;5094535;28;20176;-71
2023/12/14 00:48:01;;;;;;;0.00;0.00;;;7.50;99.90;;;;;;5094279;28;20548;-72
2023/12/14 00:50:27;;;;;;;0.00;0.00;;;7.50;99.90;;;;;;5094355;28;20201;-72
2023/12/14 00:52:53;;;;;;;0.00;0.00;;;7.50;99.90;;;;;;5096068;28;20201;-71
2023/12/14 00:55:18;;;;;;;0.20;0.13;;;7.50;99.90;;;;;;5105267;28;20202;-71
2023/12/14 00:57:43;;;;;;;0.00;0.00;;;7.50;99.90;;;;;;5094079;28;20285;-72
2023/12/14 01:00:10;;;;;;;0.00;0.00;;;7.50;99.90;;;;;;5093914;28;20551;-72
2023/12/14 01:02:36;;;;;;;0.00;0.00;;;7.50;99.90;;;;;;5100180;28;20163;-72
2023/12/14 01:05:02;;;;;;;0.00;0.00;;;7.50;99.90;;;;;;5114313;28;20275;-72
2023/12/14 01:07:27;;;;;;;0.00;0.00;;;7.50;99.90;;;;;;5111924;28;20674;-73
2023/12/14 01:09:53;;;;;;;0.10;0.10;;;7.50;99.90;;;;;;5108375;28;20176;-72
2023/12/14 01:12:18;;;;;;;0.00;0.00;;;7.50;99.90;;;;;;5111301;28;20180;-73
2023/12/14 01:14:44;;;;;;;0.00;0.00;;;7.50;99.90;;;;;;5103624;28;20274;-73
2023/12/14 01:17:09;;;;;;;0.00;0.00;;;7.50;99.90;;;;;;5103560;28;20254;-73
2023/12/14 01:19:35;;;;;;;0.00;0.00;;;7.50;99.90;;;;;;5108705;28;20618;-73
2023/12/14 01:22:00;;;;;;;0.10;0.10;;;7.50;99.90;;;;;;5100460;28;20171;-72
2023/12/14 01:24:26;;;;;;;0.00;0.00;;;7.50;99.90;;;;;;5107358;28;20238;-72
2023/12/14 01:26:51;;;;;;;0.00;0.00;;;7.50;99.90;;;;;;5107755;28;20643;-72
2023/12/14 01:29:17;;;;;;;0.00;0.00;;;7.50;99.90;;;;;;5110671;28;20168;-73
2023/12/14 01:31:42;;;;;;;0.00;0.00;;;7.50;99.90;;;;;;5097526;28;20194;-73
2023/12/14 01:34:10;;;;;;;0.00;0.00;;;7.50;99.90;;;;;;5093506;28;20180;-73
2023/12/14 01:36:35;;;;;;;0.00;0.00;;;7.50;99.90;;;;;;5104884;28;20219;-73
2023/12/14 01:39:01;;;;;;;0.00;0.00;;;7.50;99.90;;;;;;5094307;28;20215;-73
2023/12/14 01:41:26;;;;;;;0.00;0.00;;;7.50;99.90;;;;;;5112219;28;20175;-74
2023/12/14 01:43:52;;;;;;;0.00;0.00;;;7.50;99.90;;;;;;5108096;28;20204;-73
2023/12/14 01:46:17;;;;;;;0.08;0.08;;;7.60;99.90;;;;;;5093099;28;20515;-72
2023/12/14 01:48:43;;;;;;;0.00;0.00;;;7.60;99.90;;;;;;5096931;28;20600;-72
2023/12/14 01:51:08;;;;;;;0.00;0.00;;;7.60;99.90;;;;;;5099620;28;20190;-73
2023/12/14 01:53:34;;;;;;;0.00;0.00;;;7.60;99.90;;;;;;5109000;28;20195;-72
2023/12/14 01:55:59;;;;;;;0.00;0.00;;;7.60;99.90;;;;;;5100756;28;20180;-72
2023/12/14 01:58:26;;;;;;;0.00;0.00;;;7.60;99.90;;;;;;5100271;28;20306;-72
2023/12/14 02:01:03;;;;;;;0.00;0.00;;;7.60;99.90;;;;;;5105634;28;20184;-72
2023/12/14 02:03:28;;;;;;;0.00;0.00;;;7.60;99.90;;;;;;5099505;28;20289;-72
2023/12/14 02:05:54;;;;;;;0.45;0.45;;;7.60;99.90;;;;;;5092822;28;20215;-73
2023/12/14 02:08:19;;;;;;;0.28;0.28;;;7.50;99.90;;;;;;5098191;28;20176;-72
2023/12/14 02:10:45;;;;;;;0.28;0.28;;;7.60;99.90;;;;;;5095790;28;20211;-72
2023/12/14 02:13:10;;;;;;;0.00;0.00;;;7.50;99.90;;;;;;5091368;28;20180;-72
2023/12/14 02:15:36;;;;;;;0.00;0.00;;;7.50;99.90;;;;;;5094345;28;20267;-72
2023/12/14 02:18:02;;;;;;;0.00;0.00;;;7.50;99.90;;;;;;5095065;28;20270;-72
2023/12/14 02:20:27;;;;;;;0.00;0.00;;;7.50;99.90;;;;;;5111661;28;20176;-72
2023/12/14 02:22:54;;;;;;;0.00;0.00;;;7.50;99.90;;;;;;5106009;28;20183;-72
2023/12/14 02:25:20;;;;;;;0.03;0.03;;;7.40;99.90;;;;;;5104493;27;20185;-72
2023/12/14 02:27:47;;;;;;;0.00;0.00;;;7.40;99.90;;;;;;5095481;28;20176;-72
2023/12/14 02:30:13;;;;;;;0.00;0.00;;;7.40;99.90;;;;;;5103626;28;20739;-72
2023/12/14 02:32:39;;;;;;;0.00;0.00;;;7.50;99.90;;;;;;5094278;28;20271;-73
2023/12/14 02:35:06;;;;;;;0.00;0.00;;;7.50;99.90;;;;;;5094107;28;20183;-72
2023/12/14 02:37:32;;;;;;;0.00;0.00;;;7.50;99.90;;;;;;5099262;28;20272;-72
2023/12/14 02:39:58;;;;;;;0.00;0.00;;;7.50;99.90;;;;;;5102762;28;20172;-73
2023/12/14 02:42:24;;;;;;;0.00;0.00;;;7.50;99.90;;;;;;5092192;28;20259;-72
2023/12/14 02:44:50;;;;;;;0.00;0.00;;;7.50;99.90;;;;;;5092786;28;20263;-72
2023/12/14 02:47:16;;;;;;;0.00;0.00;;;7.50;99.90;;;;;;5093532;28;20172;-72
2023/12/14 02:49:42;;;;;;;0.00;0.00;;;7.50;99.90;;;;;;5100335;28;20175;-72
2023/12/14 02:52:07;;;;;;;0.25;0.25;;;7.50;99.90;;;;;;5100235;28;20179;-72
2023/12/14 02:54:33;;;;;;;0.00;0.00;;;7.50;99.90;;;;;;5093246;28;20179;-72
2023/12/14 02:56:58;;;;;;;0.20;0.20;;;7.50;99.90;;;;;;5108901;28;20172;-72
2023/12/14 02:59:24;;;;;;;0.00;0.00;;;7.50;99.90;;;;;;5100964;28;20582;-72
2023/12/14 03:01:49;;;;;;;0.08;0.08;;;7.50;99.90;;;;;;5097674;28;20176;-71
2023/12/14 03:04:15;;;;;;;0.00;0.00;;;7.50;99.90;;;;;;5100415;28;20266;-70
2023/12/14 03:06:41;;;;;;;0.00;0.00;;;7.60;99.90;;;;;;5111790;28;20216;-73
2023/12/14 03:09:06;;;;;;;0.00;0.00;;;7.50;99.90;;;;;;5104050;28;20653;-71
2023/12/14 03:11:32;;;;;;;0.00;0.00;;;7.50;99.90;;;;;;5102587;28;20645;-71
2023/12/14 03:13:57;;;;;;;0.00;0.00;;;7.50;99.90;;;;;;5096920;28;20184;-73
2023/12/14 03:16:23;;;;;;;0.00;0.00;;;7.50;99.90;;;;;;5108349;28;20262;-71
2023/12/14 03:18:52;;;;;;;0.00;0.00;;;7.60;99.90;;;;;;5097350;28;20203;-71
2023/12/14 03:21:18;;;;;;;0.05;0.05;;;7.50;99.90;;;;;;5103801;28;20574;-74
2023/12/14 03:23:43;;;;;;;0.00;0.00;;;7.60;99.90;;;;;;5092843;28;20191;-73
2023/12/14 03:26:09;;;;;;;0.00;0.00;;;7.60;99.90;;;;;;5092854;28;20176;-73
2023/12/14 03:28:35;;;;;;;0.08;0.08;;;7.60;99.90;;;;;;5108354;28;20192;-71
2023/12/14 03:31:00;;;;;;;0.00;0.00;;;7.50;99.90;;;;;;5097715;28;20646;-72
2023/12/14 03:33:26;;;;;;;0.00;0.00;;;7.50;99.90;;;;;;5102309;28;20188;-71
2023/12/14 03:35:51;;;;;;;0.00;0.00;;;7.50;99.90;;;;;;5109661;28;20570;-71
2023/12/14 03:38:17;;;;;;;0.00;0.00;;;7.50;99.90;;;;;;5104101;28;20223;-72
2023/12/14 03:40:42;;;;;;;0.00;0.00;;;7.50;99.90;;;;;;5110712;28;20179;-73
2023/12/14 03:43:08;;;;;;;0.17;0.17;;;7.50;99.90;;;;;;5104028;28;20176;-73
2023/12/14 03:45:33;;;;;;;0.00;0.00;;;7.50;99.90;;;;;;5098668;28;20180;-72
2023/12/14 03:47:59;;;;;;;0.45;0.45;;;7.50;99.90;;;;;;5104798;28;20536;-72
2023/12/14 03:50:24;;;;;;;0.00;0.00;;;7.50;99.90;;;;;;5095142;28;20199;-72
2023/12/14 03:52:50;;;;;;;0.00;0.00;;;7.50;99.90;;;;;;5110323;28;20190;-71
2023/12/14 03:55:15;;;;;;;0.00;0.00;;;7.40;99.90;;;;;;5110008;28;20179;-72
2023/12/14 03:57:42;;;;;;;0.03;0.03;;;7.40;99.90;;;;;;5110662;28;20613;-72
2023/12/14 04:00:13;;;;;;;0.00;0.00;;;7.40;99.90;;;;;;5103960;28;20225;-72
2023/12/14 04:02:39;;;;;;;0.00;0.00;;;7.40;99.90;;;;;;5109539;28;20214;-73
2023/12/14 04:05:06;;;;;;;0.00;0.00;;;7.40;99.90;;;;;;5099367;28;20636;-72
2023/12/14 04:07:32;;;;;;;0.20;0.08;;;7.40;99.90;;;;;;5102542;28;20654;-73
2023/12/14 04:09:57;;;;;;;0.00;0.00;;;7.40;99.90;;;;;;5102062;28;20183;-71
2023/12/14 04:12:23;;;;;;;0.00;0.00;;;7.40;99.90;;;;;;5101728;28;20186;-72
2023/12/14 04:14:49;;;;;;;0.00;0.00;;;7.40;99.90;;;;;;5094896;28;20180;-72
2023/12/14 04:17:15;;;;;;;0.00;0.00;;;7.40;99.90;;;;;;5110292;28;20190;-73
2023/12/14 04:19:41;;;;;;;0.00;0.00;;;7.40;99.90;;;;;;5100792;28;20621;-71
2023/12/14 04:22:07;;;;;;;0.00;0.00;;;7.40;99.90;;;;;;5105692;28;20180;-71
2023/12/14 04:24:32;;;;;;;0.00;0.00;;;7.40;99.90;;;;;;5098198;27;20232;-71
2023/12/14 04:26:58;;;;;;;0.00;0.00;;;7.40;99.90;;;;;;5102634;27;20190;-73
2023/12/14 04:29:23;;;;;;;0.00;0.00;;;7.50;99.90;;;;;;5112968;28;20182;-69
2023/12/14 04:31:49;;;;;;;0.10;0.10;;;7.60;99.90;;;;;;5106379;28;20901;-70
2023/12/14 04:34:15;;;;;;;0.00;0.00;;;7.60;99.90;;;;;;5095176;28;20187;-68
2023/12/14 04:36:42;;;;;;;0.00;0.00;;;7.60;99.90;;;;;;5098855;28;20313;-71
2023/12/14 04:39:07;;;;;;;0.00;0.00;;;7.60;99.90;;;;;;5108501;28;20250;-71
2023/12/14 04:41:33;;;;;;;0.00;0.00;;;7.60;99.90;;;;;;5096027;28;20210;-72
2023/12/14 04:43:58;;;;;;;0.05;0.05;;;7.60;99.90;;;;;;5094446;28;20656;-68
2023/12/14 04:46:24;;;;;;;0.43;0.43;;;7.60;99.90;;;;;;5093111;28;20172;-69
2023/12/14 04:48:49;;;;;;;0.10;0.10;;;7.50;99.90;;;;;;5094571;28;20195;-73
2023/12/14 04:51:15;;;;;;;0.00;0.00;;;7.50;99.90;;;;;;5110684;28;20175;-69
2023/12/14 04:53:40;;;;;;;0.00;0.00;;;7.50;99.90;;;;;;5097628;28;20171;-71
2023/12/14 04:56:10;;;;;;;0.00;0.00;;;7.50;99.90;;;;;;5098575;28;20405;-71
2023/12/14 04:58:36;;;;;;;0.30;0.08;;;7.60;99.90;;;;;;5105104;28;20217;-72
2023/12/14 05:01:02;;;;;;;0.00;0.00;;;7.60;99.90;;;;;;5099429;28;20695;-73
2023/12/14 05:03:27;;;;;;;0.00;0.00;;;7.60;99.90;;;;;;5105006;28;20182;-76
2023/12/14 05:05:53;;;;;;;0.00;0.00;;;7.60;99.90;;;;;;5103393;27;20164;-72
2023/12/14 05:08:18;;;;;;;0.00;0.00;;;7.60;99.90;;;;;;5093637;28;20179;-72
2023/12/14 05:10:44;;;;;;;0.20;0.20;;;7.60;99.90;;;;;;5094388;28;20184;-70
2023/12/14 05:13:10;;;;;;;0.00;0.00;;;7.60;99.90;;;;;;5110347;28;20209;-71
2023/12/14 05:15:35;;;;;;;0.00;0.00;;;7.60;99.90;;;;;;5096941;28;20180;-70
2023/12/14 05:18:00;;;;;;;0.00;0.00;;;7.50;99.90;;;;;;5105683;28;20204;-72
2023/12/14 05:20:26;;;;;;;0.00;0.00;;;7.60;99.90;;;;;;5094942;28;20184;-73
2023/12/14 05:22:51;;;;;;;0.00;0.00;;;7.60;99.90;;;;;;5093843;28;20172;-72
2023/12/14 05:25:17;;;;;;;0.08;0.08;;;7.60;99.90;;;;;;5100484;28;20650;-73
2023/12/14 05:27:43;;;;;;;0.00;0.00;;;7.60;99.90;;;;;;5108979;28;20188;-71
2023/12/14 05:30:09;;;;;;;0.40;0.15;;;7.60;99.90;;;;;;5093626;28;20187;-71
2023/12/14 05:32:35;;;;;;;0.00;0.00;;;7.60;99.90;;;;;;5102858;28;20198;-72
2023/12/14 05:35:01;;;;;;;0.00;0.00;;;7.60;99.90;;;;;;5100060;28;20180;-71
2023/12/14 05:37:26;;;;;;;0.00;0.00;;;7.60;99.90;;;;;;5097802;28;20279;-72
2023/12/14 05:39:52;;;;;;;0.00;0.00;;;7.60;99.90;;;;;;5096862;28;20618;-73
2023/12/14 05:42:17;;;;;;;0.00;0.00;;;7.60;99.90;;;;;;5105546;28;20172;-72
2023/12/14 05:44:44;;;;;;;0.32;0.32;;;7.60;99.90;;;;;;5107588;28;20183;-74
2023/12/14 05:47:10;;;;;;;0.03;0.03;;;7.60;99.90;;;;;;5111013;28;20270;-73
2023/12/14 05:49:37;;;;;;;0.00;0.00;;;7.60;99.90;;;;;;5096158;28;20259;-72
2023/12/14 05:52:03;;;;;;;0.00;0.00;;;7.60;99.90;;;;;;5098034;28;20217;-72
2023/12/14 05:54:28;;;;;;;0.00;0.00;;;7.60;99.90;;;;;;5109669;28;20546;-72
2023/12/14 05:56:54;;;;;;;0.10;0.10;;;7.60;99.90;;;;;;5104967;28;20542;-72
2023/12/14 05:59:20;;;;;;;0.00;0.00;;;7.60;99.90;;;;;;5097195;28;20212;-72
2023/12/14 06:01:45;;;;;;;0.00;0.00;;;7.60;99.90;;;;;;5104985;28;20238;-72
2023/12/14 06:04:11;;;;;;;0.00;0.00;;;7.60;99.90;;;;;;5106956;28;20223;-72
2023/12/14 06:06:39;;;;;;;0.00;0.00;;;7.60;99.90;;;;;;5095940;28;20544;-73
2023/12/14 06:09:07;;;;;;;0.00;0.00;;;7.60;99.90;;;;;;5092935;28;20180;-73
2023/12/14 06:11:33;;;;;;;0.00;0.00;;;7.60;99.90;;;;;;5094009;28;20591;-72
2023/12/14 06:13:59;;;;;;;0.20;0.20;;;7.60;99.90;;;;;;5108873;28;20180;-73
2023/12/14 06:16:25;;;;;;;0.00;0.00;;;7.70;99.90;;;;;;5100039;28;20183;-72
2023/12/14 06:18:50;;;;;;;0.20;0.20;;;7.70;99.90;;;;;;5111225;28;20361;-72
2023/12/14 06:21:16;;;;;;;0.00;0.00;;;7.70;99.90;;;;;;5097845;28;20183;-73
2023/12/14 06:23:41;;;;;;;0.20;0.20;;;7.60;99.90;;;;;;5094051;28;20180;-73
2023/12/14 06:26:07;;;;;;;0.00;0.00;;;7.60;99.90;;;;;;5101293;28;20274;-73
2023/12/14 06:28:33;;;;;;;0.00;0.00;;;7.60;99.90;;;;;;5101256;28;20176;-72
2023/12/14 06:30:58;;;;;;;0.17;0.17;;;7.60;99.90;;;;;;5104044;28;20228;-73
2023/12/14 06:33:24;;;;;;;0.10;0.10;;;7.60;99.90;;;;;;5097283;28;20706;-72
2023/12/14 06:35:49;;;;;;;0.10;0.10;;;7.60;99.90;;;;;;5106337;28;20172;-71
2023/12/14 06:38:15;;;;;;;0.00;0.00;;;7.50;99.90;;;;;;5102597;28;20227;-71
2023/12/14 06:40:41;;;;;;;0.10;0.10;;;7.50;99.90;;;;;;5109936;28;20182;-71
2023/12/14 06:43:06;;;;;;;0.32;0.32;;;7.50;99.90;;;;;;5111546;28;20199;-72
2023/12/14 06:45:32;;;;;;;0.00;0.00;;;7.40;99.90;;;;;;5106710;28;20179;-73
2023/12/14 06:47:57;;;;;;;0.00;0.00;;;7.50;99.90;;;;;;5094553;28;20172;-72
2023/12/14 06:50:23;;;;;;;0.17;0.17;;;7.50;99.90;;;;;;5097603;28;20213;-72
2023/12/14 06:52:48;;;;;;;0.00;0.00;;;7.50;99.90;;;;;;5095490;28;20651;-72
2023/12/14 06:55:14;;;;;;;0.10;0.10;;;7.50;99.90;;;;;;5096861;28;20184;-72
2023/12/14 06:57:43;;;;;;;0.00;0.00;;;7.50;99.90;;;;;;5108242;28;20211;-73
2023/12/14 07:00:09;;;;;;;0.13;0.13;;;7.50;99.90;;;;;;5095121;28;20179;-72
2023/12/14 07:02:35;;;;;;;0.00;0.00;;;7.50;99.90;;;;;;5104582;28;20647;-72
2023/12/14 07:05:01;;;;;;;0.20;0.20;;;7.50;99.90;;;;;;5094762;28;20199;-69
2023/12/14 07:07:26;;;;;;;0.00;0.00;;;7.50;99.90;;;;;;5105141;28;20183;-70
2023/12/14 07:09:52;;;;;;;0.00;0.00;;;7.50;99.90;;;;;;5108934;28;20617;-72
2023/12/14 07:12:17;;;;;;;0.00;0.00;;;7.50;99.90;;;;;;5103148;28;20647;-71
2023/12/14 07:14:43;;;;;;;0.08;0.08;;;7.50;99.90;;;;;;5110470;28;20160;-72
2023/12/14 07:17:08;;;;;;;0.55;0.30;;;7.50;99.90;;;;;;5110726;28;20183;-71
2023/12/14 07:19:35;;;;;;;0.00;0.00;;;7.50;99.90;;;;;;5110718;28;20721;-71
2023/12/14 07:22:01;;;;;;;0.00;0.00;;;7.60;99.90;;;;;;5110641;28;20180;-71
2023/12/14 07:24:26;;;;;;;0.00;0.00;;;7.50;99.90;;;;;;5110580;28;20360;-71
2023/12/14 07:26:52;;;;;;;0.00;0.00;;;7.50;99.90;;;;;;5110471;28;20521;-71
2023/12/14 07:29:17;;;;;;;0.00;0.00;;;7.60;99.90;;;;;;5110933;28;20168;-71
2023/12/14 07:31:43;;;;;;;0.00;0.00;;;7.60;99.90;;;;;;5111503;28;20549;-71
2023/12/14 07:34:08;;;;;;;0.15;0.15;;;7.60;99.90;;;;;;5111423;28;20175;-71
2023/12/14 07:36:34;;;;;;;0.00;0.00;;;7.60;99.90;;;;;;5110568;28;20235;-72
2023/12/14 07:39:01;;;;;;;0.00;0.00;;;7.60;99.90;;;;;;5089827;28;20211;-71
2023/12/14 07:41:29;;;;;;;0.00;0.00;;;7.60;99.90;;;;;;5090988;28;20619;-71
2023/12/14 07:43:55;;;;;;;0.00;0.00;;;7.60;99.90;;;;;;5090867;28;20279;-72
2023/12/14 07:46:21;;;;;;;0.00;0.00;;;7.60;99.90;;;;;;5091110;28;20172;-72
2023/12/14 07:48:47;;;;;;;0.00;0.00;;;7.60;99.90;;;;;;5091110;28;20180;-72
2023/12/14 07:51:13;;;;;;;0.10;0.10;;;7.60;99.90;;;;;;5090458;28;20188;-71
2023/12/14 07:53:38;;;;;;;0.00;0.00;;;7.60;99.90;;;;;;5091014;28;20188;-72
2023/12/14 07:56:04;;;;;;;0.00;0.00;;;7.60;99.90;;;;;;5091437;28;20207;-71
2023/12/14 07:58:30;;;;;;;0.10;0.10;;;7.60;99.90;;;;;;5090677;28;20220;-71
2023/12/14 08:00:56;;;;;;;0.10;0.08;;;7.60;99.90;;;;;;5090792;28;20198;-71
2023/12/14 08:03:21;;;;;;;0.13;0.13;;;7.60;99.90;;;;;;5090842;28;20182;-71
2023/12/14 08:05:47;;;;;;;0.00;0.00;;;7.60;99.90;;;;;;5090859;28;20187;-69
2023/12/14 08:08:12;;;;;;;0.22;0.20;;;7.70;99.90;;;;;;5090847;28;20662;-72
2023/12/14 08:10:38;;;;;;;0.00;0.00;;;7.70;99.90;;;;;;5090581;28;20172;-71
2023/12/14 08:13:04;;;;;;;0.10;0.10;;;7.70;99.90;;;;;;5090635;28;20180;-72
2023/12/14 08:15:29;;;;;;;0.03;0.03;;;7.70;99.90;;;;;;5090763;28;20693;-72
2023/12/14 08:17:55;;;;;;;0.10;0.10;;;7.70;99.90;;;;;;5090519;28;20731;-71
2023/12/14 08:20:21;;;;;;;0.68;0.68;;;7.70;99.90;;;;;;5090679;28;20179;-71
2023/12/14 08:22:47;;;;;;;0.00;0.00;;;7.70;99.90;;;;;;5090636;28;20176;-71
2023/12/14 08:25:17;;;;;;;0.15;0.15;;;7.70;99.90;;;;;;5090628;28;20639;-71
2023/12/14 08:27:43;;;;;;;0.00;0.00;;;7.70;99.90;;;;;;5089533;28;20233;-72
2023/12/14 08:30:10;;;;;;;0.20;0.20;;;7.80;99.90;;;;;;5090495;28;20207;-71
2023/12/14 08:32:36;;;;;;;0.10;0.10;;;7.90;99.90;;;;;;5090364;28;20172;-71
2023/12/14 08:35:01;;;;;;;0.00;0.00;;;7.80;99.90;;;;;;5090150;28;20187;-70
2023/12/14 08:37:27;;;;;;;0.00;0.00;;;7.90;99.90;;;;;;5095277;28;20229;-72
2023/12/14 08:39:52;;;;;;;0.00;0.00;;;7.90;99.90;;;;;;5109527;28;20226;-70
2023/12/14 08:42:18;;;;;;;0.00;0.00;;;8.00;99.90;;;;;;5110704;28;20168;-72
2023/12/14 08:44:43;;;;;;;0.30;0.30;;;8.00;99.90;;;;;;5110815;28;20202;-72
2023/12/14 08:47:09;;;;;;;0.00;0.00;;;8.00;99.90;;;;;;5109429;28;20699;-71
2023/12/14 08:49:35;;;;;;;0.30;0.30;;;8.00;99.90;;;;;;5110678;28;20180;-72
2023/12/14 08:52:01;;;;;;;0.00;0.00;;;8.00;99.90;;;;;;5096616;28;20180;-71
2023/12/14 08:54:27;;;;;;;0.00;0.00;;;8.00;99.90;;;;;;5092454;28;20409;-71
2023/12/14 08:56:52;;;;;;;0.25;0.25;;;8.00;99.90;;;;;;5109188;28;20172;-71
2023/12/14 08:59:20;;;;;;;0.00;0.00;;;8.00;99.90;;;;;;5090935;28;20599;-72
2023/12/14 09:01:45;;;;;;;0.00;0.00;;;8.00;99.90;;;;;;5097901;28;20531;-71
2023/12/14 09:04:11;;;;;;;0.00;0.00;;;8.00;99.90;;;;;;5105341;28;20199;-72
2023/12/14 09:06:37;;;;;;;0.00;0.00;;;8.00;99.90;;;;;;5113435;28;20179;-71
2023/12/14 09:09:03;;;;;;;0.00;0.00;;;8.00;99.90;;;;;;5101177;27;20178;-71
2023/12/14 09:11:29;;;;;;;0.00;0.00;;;8.10;99.90;;;;;;5094223;28;20177;-72
2023/12/14 09:13:55;;;;;;;0.15;0.15;;;8.00;99.90;;;;;;5098681;28;20183;-72
2023/12/14 09:16:20;;;;;;;0.00;0.00;;;8.10;99.90;;;;;;5096285;28;20533;-72
2023/12/14 09:18:46;;;;;;;0.15;0.15;;;8.10;99.90;;;;;;5113412;28;20222;-72
2023/12/14 09:21:12;;;;;;;0.00;0.00;;;8.20;99.90;;;;;;5094118;28;20180;-72
2023/12/14 09:23:37;;;;;;;0.00;0.00;;;8.30;99.90;;;;;;5114962;27;20240;-72
2023/12/14 09:26:03;;;;;;;0.00;0.00;;;8.40;99.90;;;;;;5103051;28;20171;-69
2023/12/14 09:28:28;;;;;;;0.00;0.00;;;8.40;99.90;;;;;;5100878;28;20666;-72
2023/12/14 09:30:54;;;;;;;0.10;0.10;;;8.30;99.90;;;;;;5095582;28;20644;-71
2023/12/14 09:33:20;;;;;;;0.08;0.08;;;8.40;99.90;;;;;;5096856;28;20175;-71
2023/12/14 09:35:45;;;;;;;0.00;0.00;;;8.40;99.90;;;;;;5106639;28;20651;-71
2023/12/14 09:38:13;;;;;;;0.00;0.00;;;8.40;99.90;;;;;;5093607;28;20330;-71
2023/12/14 09:40:39;;;;;;;0.08;0.08;;;8.40;99.90;;;;;;5107489;28;20187;-72
2023/12/14 09:43:05;;;;;;;0.10;0.10;;;8.50;99.90;;;;;;5093591;28;20191;-71
2023/12/14 09:45:31;;;;;;;0.00;0.00;;;8.40;99.90;;;;;;5108545;28;20180;-71
2023/12/14 09:47:59;;;;;;;0.00;0.00;;;8.40;99.90;;;;;;5094231;27;20784;-71
2023/12/14 09:50:25;;;;;;;0.00;0.00;;;8.40;99.90;;;;;;5105246;28;20172;-71
2023/12/14 09:52:51;;;;;;;0.20;0.20;;;8.40;99.90;;;;;;5097573;28;20215;-71
2023/12/14 09:55:17;;;;;;;0.28;0.28;;;8.40;99.90;;;;;;5103568;28;20204;-72
2023/12/14 09:57:42;;;;;;;0.25;0.25;;;8.30;99.90;;;;;;5097236;28;20229;-70
2023/12/14 10:00:13;;;;;;;0.00;0.00;;;8.30;99.90;;;;;;5112072;27;20175;-72
2023/12/14 10:02:40;;;;;;;0.00;0.00;;;8.30;99.90;;;;;;5105530;28;20210;-72
2023/12/14 10:05:10;;;;;;;0.00;0.00;;;8.40;99.90;;;;;;5108737;27;20646;-72
2023/12/14 10:07:43;;;;;;;0.00;0.00;;;8.30;99.90;;;;;;5099857;28;20180;-72
2023/12/14 10:10:14;;;;;;;0.00;0.00;;;8.30;99.90;;;;;;5101201;28;20203;-72
2023/12/14 10:12:53;;;;;;;0.10;0.10;;;8.30;99.90;;;;;;5107752;28;20214;-70
2023/12/14 10:15:18;;;;;;;0.08;0.08;;;8.30;99.90;;;;;;5099974;28;20216;-73
2023/12/14 10:17:44;;;;;;;0.00;0.00;;;8.30;99.90;;;;;;5106922;28;20558;-72
2023/12/14 10:20:09;;;;;;;0.00;0.00;;;8.30;99.90;;;;;;5104833;28;20183;-73
2023/12/14 10:22:37;;;;;;;0.00;0.00;;;8.30;99.90;;;;;;5102098;28;20176;-73
2023/12/14 10:25:03;;;;;;;0.00;0.00;;;8.40;99.90;;;;;;5105437;27;20186;-72
2023/12/14 10:27:30;;;;;;;0.00;0.00;;;8.40;99.90;;;;;;5099328;27;20187;-71
2023/12/14 10:29:56;;;;;;;0.00;0.00;;;8.40;99.90;;;;;;5101556;28;20248;-73
2023/12/14 10:32:23;;;;;;;0.00;0.00;;;8.40;99.90;;;;;;5095071;28;20185;-73
2023/12/14 10:34:48;;;;;;;0.00;0.00;;;8.40;99.90;;;;;;5092234;28;20262;-73
2023/12/14 10:37:17;;;;;;;0.00;0.00;;;8.40;99.90;;;;;;5095024;28;20311;-74
2023/12/14 10:39:43;;;;;;;0.00;0.00;;;8.50;99.90;;;;;;5112426;28;20648;-73
2023/12/14 10:42:09;;;;;;;0.00;0.00;;;8.60;99.90;;;;;;5112391;28;20171;-74
2023/12/14 10:44:36;;;;;;;0.10;0.10;;;8.70;99.90;;;;;;5112376;28;20670;-75
2023/12/14 10:47:04;;;;;;;0.00;0.00;;;8.90;99.90;;;;;;5112419;28;20309;-74
2023/12/14 10:49:30;;;;;;;0.00;0.00;;;9.00;99.90;;;;;;5112433;28;20647;-74
2023/12/14 10:51:58;;;;;;;0.00;0.00;;;9.10;99.90;;;;;;5112195;28;20545;-75
2023/12/14 10:54:26;;;;;;;0.00;0.00;;;9.20;99.90;;;;;;5112354;28;20167;-74
2023/12/14 10:56:56;;;;;;;0.00;0.00;;;9.30;99.90;;;;;;5112058;28;20184;-74
2023/12/14 10:59:23;;;;;;;0.00;0.00;;;9.40;99.90;;;;;;5112147;28;20727;-72
2023/12/14 11:01:53;;;;;;;0.00;0.00;;;9.60;99.90;;;;;;5112081;28;20262;-72
2023/12/14 11:04:21;;;;;;;0.00;0.00;;;9.70;99.90;;;;;;5112031;28;20186;-73
2023/12/14 11:06:48;;;;;;;0.00;0.00;;;9.70;99.90;;;;;;5112075;27;20178;-72
2023/12/14 11:09:18;;;;;;;0.20;0.10;;;9.70;99.90;;;;;;5111852;28;20180;-73
2023/12/14 11:11:53;;;;;;;0.00;0.00;;;9.60;99.90;;;;;;5112086;28;20646;-73
2023/12/14 11:14:19;;;;;;;0.00;0.00;;;9.60;99.90;;;;;;5111919;28;20167;-73
2023/12/14 11:16:46;;;;;;;0.10;0.10;;;9.50;99.90;;;;;;5112044;28;20167;-72
2023/12/14 11:19:20;;;;;;;0.00;0.00;;;9.50;99.90;;;;;;5111856;28;20666;-72
2023/12/14 11:22:06;;;;;;;0.28;0.28;;;9.40;99.90;;;;;;5111931;28;20632;-72
2023/12/14 11:24:32;;;;;;;0.00;0.00;;;9.40;99.90;;;;;;5096803;28;20184;-73
2023/12/14 11:26:59;;;;;;;0.00;0.00;;;9.30;99.90;;;;;;5110392;28;20168;-72
2023/12/14 11:29:25;;;;;;;0.00;0.00;;;9.20;99.90;;;;;;5112028;28;20176;-72
2023/12/14 11:31:51;;;;;;;0.00;0.00;;;9.20;99.90;;;;;;5111859;28;20187;-72
2023/12/14 11:34:17;;;;;;;0.00;0.00;;;9.20;99.90;;;;;;5111714;28;20159;-72
2023/12/14 11:36:43;;;;;;;0.00;0.00;;;9.20;99.90;;;;;;5109524;28;20227;-73
2023/12/14 11:39:12;;;;;;;0.00;0.00;;;9.20;99.90;;;;;;5110188;28;20211;-72
2023/12/14 11:41:38;;;;;;;0.00;0.00;;;9.20;99.90;;;;;;5111629;28;20256;-74
2023/12/14 11:44:04;;;;;;;0.00;0.00;;;9.20;99.90;;;;;;5110308;28;20643;-75
2023/12/14 11:46:30;;;;;;;0.00;0.00;;;9.20;99.90;;;;;;5111502;28;20182;-75
2023/12/14 11:48:57;;;;;;;0.00;0.00;;;9.10;99.90;;;;;;5111277;28;20270;-75
2023/12/14 11:51:22;;;;;;;0.20;0.20;;;9.00;99.90;;;;;;5111393;28;20519;-75
2023/12/14 11:53:48;;;;;;;0.00;0.00;;;8.90;99.90;;;;;;5111354;28;20189;-75
2023/12/14 11:56:17;;;;;;;0.00;0.00;;;8.80;99.90;;;;;;5111138;28;20163;-74
2023/12/14 11:58:44;;;;;;;0.00;0.00;;;8.80;99.90;;;;;;5111387;28;20211;-75
2023/12/14 12:01:15;;;;;;;0.10;0.10;;;8.70;99.90;;;;;;5111003;28;20175;-75
2023/12/14 12:03:43;;;;;;;0.05;0.05;;;8.80;99.90;;;;;;5111200;28;20202;-74
2023/12/14 12:06:19;;;;;;;0.00;0.00;;;8.80;99.90;;;;;;5111041;28;20697;-73
2023/12/14 12:08:45;;;;;;;0.00;0.00;;;8.70;99.90;;;;;;5111213;28;20171;-74
2023/12/14 12:11:10;;;;;;;0.00;0.00;;;8.70;99.90;;;;;;5111126;28;20168;-73
2023/12/14 12:13:36;;;;;;;0.00;0.00;;;8.70;99.90;;;;;;5111150;28;20176;-73
2023/12/14 12:16:01;;;;;;;0.00;0.00;;;8.70;99.90;;;;;;5111084;28;20597;-74
2023/12/14 12:18:27;;;;;;;0.08;0.08;;;8.70;99.90;;;;;;5111184;28;20576;-73
2023/12/14 12:20:53;;;;;;;0.00;0.00;;;8.70;99.90;;;;;;5109666;28;20759;-73
2023/12/14 12:23:19;;;;;;;0.00;0.00;;;8.70;99.90;;;;;;5111045;28;20175;-73
2023/12/14 12:25:44;;;;;;;0.00;0.00;;;8.70;99.90;;;;;;5111117;28;20643;-74
2023/12/14 12:28:10;;;;;;;0.00;0.00;;;8.70;99.90;;;;;;5110929;28;20224;-73
2023/12/14 12:30:35;;;;;;;0.00;0.00;;;8.70;99.90;;;;;;5110956;28;20178;-73
2023/12/14 12:33:01;;;;;;;0.00;0.00;;;8.80;99.90;;;;;;5110947;28;20639;-73
2023/12/14 12:35:29;;;;;;;0.00;0.00;;;8.80;99.90;;;;;;5110977;28;20245;-73
2023/12/14 12:37:55;;;;;;;0.00;0.00;;;8.80;99.90;;;;;;5110788;28;20231;-72
2023/12/14 12:40:22;;;;;;;0.00;0.00;;;8.80;99.90;;;;;;5114923;28;20180;-74
2023/12/14 12:42:49;;;;;;;0.03;0.03;;;8.80;99.90;;;;;;5114882;28;20167;-72
2023/12/14 12:45:17;;;;;;;0.00;0.00;;;8.90;99.90;;;;;;5114705;28;20176;-73
2023/12/14 12:47:43;;;;;;;0.00;0.00;;;8.90;99.90;;;;;;5114801;28;20164;-73
2023/12/14 12:50:09;;;;;;;0.00;0.00;;;8.90;99.90;;;;;;5114626;28;20244;-74
2023/12/14 12:52:35;;;;;;;0.00;0.00;;;8.90;99.90;;;;;;5114558;28;20308;-74